sensor_id;sensor_type;location;lat;lon;timestamp;pressure;altitude;pressure_sealevel;temperature;humidity
29247;BME280;16272;48.188;9.964;2024-02-23T00:00:23;93893.41;;;6.35;78.97
29247;BME280;16272;48.188;9.964;2024-02-23T00:02:49;93913.88;;;6.33;79.06
29247;BME280;16272;48.188;9.964;2024-02-23T00:05:14;93923.22;;;6.36;78.50
29247;BME280;16272;48.188;9.964;2024-02-23T00:07:40;93909.84;;;6.46;78.29
29247;BME280;16272;48.188;9.964;2024-02-23T00:10:05;93898.00;;;6.41;77.18
29247;BME280;16272;48.188;9.964;2024-02-23T00:12:31;93916.84;;;6.30;77.50
29247;BME280;16272;48.188;9.964;2024-02-23T00:14:56;93914.53;;;6.27;76.84
29247;BME280;16272;48.188;9.964;2024-02-23T00:17:22;93896.91;;;6.28;76.59
29247;BME280;16272;48.188;9.964;2024-02-23T00:19:48;93909.09;;;6.29;75.61
29247;BME280;16272;48.188;9.964;2024-02-23T00:22:14;93922.97;;;6.22;76.47
29247;BME280;16272;48.188;9.964;2024-02-23T00:24:39;93916.56;;;6.17;74.74
29247;BME280;16272;48.188;9.964;2024-02-23T00:27:06;93916.91;;;6.14;73.05
29247;BME280;16272;48.188;9.964;2024-02-23T00:29:31;93905.03;;;6.10;73.72
29247;BME280;16272;48.188;9.964;2024-02-23T00:31:56;93916.88;;;6.22;74.04
29247;BME280;16272;48.188;9.964;2024-02-23T00:34:21;93926.06;;;6.26;73.82
29247;BME280;16272;48.188;9.964;2024-02-23T00:36:47;93918.25;;;6.01;74.48
29247;BME280;16272;48.188;9.964;2024-02-23T00:39:13;93926.16;;;5.93;74.97
29247;BME280;16272;48.188;9.964;2024-02-23T00:41:38;93931.72;;;6.15;74.75
29247;BME280;16272;48.188;9.964;2024-02-23T00:44:04;93936.06;;;5.99;74.53
29247;BME280;16272;48.188;9.964;2024-02-23T00:46:29;93943.28;;;6.05;74.58
29247;BME280;16272;48.188;9.964;2024-02-23T00:48:55;93937.03;;;5.98;75.48
29247;BME280;16272;48.188;9.964;2024-02-23T00:51:21;93940.50;;;6.07;75.08
29247;BME280;16272;48.188;9.964;2024-02-23T00:53:46;93945.59;;;6.09;74.63
29247;BME280;16272;48.188;9.964;2024-02-23T00:56:11;93948.25;;;6.00;75.16
29247;BME280;16272;48.188;9.964;2024-02-23T00:58:38;93951.50;;;6.11;74.66
29247;BME280;16272;48.188;9.964;2024-02-23T01:01:03;93952.03;;;5.98;74.89
29247;BME280;16272;48.188;9.964;2024-02-23T01:03:28;93959.13;;;5.97;75.00
29247;BME280;16272;48.188;9.964;2024-02-23T01:05:54;93966.69;;;6.09;74.64
29247;BME280;16272;48.188;9.964;2024-02-23T01:08:19;93968.25;;;6.26;74.93
29247;BME280;16272;48.188;9.964;2024-02-23T01:10:45;93967.66;;;6.07;75.15
29247;BME280;16272;48.188;9.964;2024-02-23T01:13:10;93970.97;;;6.01;74.96
29247;BME280;16272;48.188;9.964;2024-02-23T01:15:35;93972.63;;;6.02;75.55
29247;BME280;16272;48.188;9.964;2024-02-23T01:18:01;93987.09;;;5.98;75.85
29247;BME280;16272;48.188;9.964;2024-02-23T01:20:26;93981.84;;;5.98;77.15
29247;BME280;16272;48.188;9.964;2024-02-23T01:22:51;93986.47;;;5.96;76.54
29247;BME280;16272;48.188;9.964;2024-02-23T01:25:17;93983.81;;;5.88;76.88
29247;BME280;16272;48.188;9.964;2024-02-23T01:27:42;93986.94;;;5.92;76.91
29247;BME280;16272;48.188;9.964;2024-02-23T01:30:10;93968.81;;;5.80;78.13
29247;BME280;16272;48.188;9.964;2024-02-23T01:32:35;93973.28;;;5.80;76.86
29247;BME280;16272;48.188;9.964;2024-02-23T01:35:02;93984.13;;;5.85;76.86
29247;BME280;16272;48.188;9.964;2024-02-23T01:37:28;93972.66;;;5.69;78.11
29247;BME280;16272;48.188;9.964;2024-02-23T01:39:53;93982.88;;;5.56;78.98
29247;BME280;16272;48.188;9.964;2024-02-23T01:42:18;94000.81;;;5.77;78.83
29247;BME280;16272;48.188;9.964;2024-02-23T01:44:44;94011.34;;;5.77;78.79
29247;BME280;16272;48.188;9.964;2024-02-23T01:47:10;94039.75;;;5.16;79.02
29247;BME280;16272;48.188;9.964;2024-02-23T01:49:36;94055.13;;;4.78;80.76
29247;BME280;16272;48.188;9.964;2024-02-23T01:52:02;94057.63;;;4.45;81.25
29247;BME280;16272;48.188;9.964;2024-02-23T01:54:28;94063.88;;;4.18;82.53
29247;BME280;16272;48.188;9.964;2024-02-23T01:56:55;94062.84;;;4.11;83.82
29247;BME280;16272;48.188;9.964;2024-02-23T01:59:22;94058.75;;;4.16;83.19
29247;BME280;16272;48.188;9.964;2024-02-23T02:01:48;94054.19;;;3.92;84.04
29247;BME280;16272;48.188;9.964;2024-02-23T02:04:13;94061.03;;;4.11;84.53
29247;BME280;16272;48.188;9.964;2024-02-23T02:06:39;94047.72;;;4.39;83.44
29247;BME280;16272;48.188;9.964;2024-02-23T02:09:04;94042.19;;;4.16;83.56
29247;BME280;16272;48.188;9.964;2024-02-23T02:11:30;94043.44;;;4.30;83.71
29247;BME280;16272;48.188;9.964;2024-02-23T02:13:56;94040.09;;;4.28;83.90
29247;BME280;16272;48.188;9.964;2024-02-23T02:16:21;94033.88;;;4.29;83.51
29247;BME280;16272;48.188;9.964;2024-02-23T02:18:46;94030.94;;;4.32;83.61
29247;BME280;16272;48.188;9.964;2024-02-23T02:21:12;94037.34;;;4.03;84.61
29247;BME280;16272;48.188;9.964;2024-02-23T02:23:38;94035.44;;;4.13;84.46
29247;BME280;16272;48.188;9.964;2024-02-23T02:26:03;94039.19;;;4.37;84.35
29247;BME280;16272;48.188;9.964;2024-02-23T02:28:29;94050.69;;;4.44;83.26
29247;BME280;16272;48.188;9.964;2024-02-23T02:30:55;94056.31;;;4.49;83.81
29247;BME280;16272;48.188;9.964;2024-02-23T02:33:21;94051.41;;;4.54;83.64
29247;BME280;16272;48.188;9.964;2024-02-23T02:35:47;94051.50;;;4.71;82.62
29247;BME280;16272;48.188;9.964;2024-02-23T02:38:13;94034.50;;;4.57;82.99
29247;BME280;16272;48.188;9.964;2024-02-23T02:40:38;94039.38;;;4.86;81.34
29247;BME280;16272;48.188;9.964;2024-02-23T02:43:04;94041.50;;;4.83;80.61
29247;BME280;16272;48.188;9.964;2024-02-23T02:45:29;94026.13;;;4.62;81.28
29247;BME280;16272;48.188;9.964;2024-02-23T02:47:55;94021.56;;;4.72;80.96
29247;BME280;16272;48.188;9.964;2024-02-23T02:50:21;94028.81;;;4.78;80.45
29247;BME280;16272;48.188;9.964;2024-02-23T02:52:46;94022.91;;;4.76;79.78
29247;BME280;16272;48.188;9.964;2024-02-23T02:55:12;94023.53;;;4.70;79.54
29247;BME280;16272;48.188;9.964;2024-02-23T02:57:37;94018.59;;;4.67;79.36
29247;BME280;16272;48.188;9.964;2024-02-23T03:00:03;94006.44;;;4.66;80.40
29247;BME280;16272;48.188;9.964;2024-02-23T03:02:34;94015.94;;;4.58;79.54
29247;BME280;16272;48.188;9.964;2024-02-23T03:04:59;94026.16;;;4.70;79.18
29247;BME280;16272;48.188;9.964;2024-02-23T03:07:26;94023.78;;;4.50;79.17
29247;BME280;16272;48.188;9.964;2024-02-23T03:09:52;94017.47;;;4.69;78.26
29247;BME280;16272;48.188;9.964;2024-02-23T03:12:17;94015.81;;;4.68;78.58
29247;BME280;16272;48.188;9.964;2024-02-23T03:14:43;94019.69;;;4.48;79.12
29247;BME280;16272;48.188;9.964;2024-02-23T03:17:09;94015.13;;;4.58;78.44
29247;BME280;16272;48.188;9.964;2024-02-23T03:19:35;94020.00;;;4.45;77.47
29247;BME280;16272;48.188;9.964;2024-02-23T03:22:00;94008.81;;;4.51;77.58
29247;BME280;16272;48.188;9.964;2024-02-23T03:24:25;94005.97;;;4.36;78.24
29247;BME280;16272;48.188;9.964;2024-02-23T03:26:51;94015.63;;;4.27;78.47
29247;BME280;16272;48.188;9.964;2024-02-23T03:29:16;94014.94;;;4.51;78.40
29247;BME280;16272;48.188;9.964;2024-02-23T03:31:41;94017.44;;;4.27;79.80
29247;BME280;16272;48.188;9.964;2024-02-23T03:34:07;94013.75;;;4.11;79.40
29247;BME280;16272;48.188;9.964;2024-02-23T03:36:33;94020.31;;;4.41;77.71
29247;BME280;16272;48.188;9.964;2024-02-23T03:38:59;94031.72;;;4.58;77.30
29247;BME280;16272;48.188;9.964;2024-02-23T03:41:24;94030.63;;;4.35;77.19
29247;BME280;16272;48.188;9.964;2024-02-23T03:43:49;94044.78;;;4.42;77.58
29247;BME280;16272;48.188;9.964;2024-02-23T03:46:15;94029.75;;;4.26;77.49
29247;BME280;16272;48.188;9.964;2024-02-23T03:48:41;94027.72;;;4.46;75.69
29247;BME280;16272;48.188;9.964;2024-02-23T03:51:08;94025.28;;;4.18;76.68
29247;BME280;16272;48.188;9.964;2024-02-23T03:53:34;94017.50;;;4.35;76.20
29247;BME280;16272;48.188;9.964;2024-02-23T03:55:59;94014.63;;;4.20;75.42
29247;BME280;16272;48.188;9.964;2024-02-23T03:58:24;94029.59;;;4.28;76.69
29247;BME280;16272;48.188;9.964;2024-02-23T04:00:50;94031.41;;;4.27;76.17
29247;BME280;16272;48.188;9.964;2024-02-23T04:03:15;94028.06;;;4.17;76.14
29247;BME280;16272;48.188;9.964;2024-02-23T04:05:40;94031.22;;;4.20;76.64
29247;BME280;16272;48.188;9.964;2024-02-23T04:08:06;94033.91;;;4.37;76.21
29247;BME280;16272;48.188;9.964;2024-02-23T04:10:31;94026.56;;;4.14;76.32
29247;BME280;16272;48.188;9.964;2024-02-23T04:12:57;94031.47;;;4.09;75.75
29247;BME280;16272;48.188;9.964;2024-02-23T04:15:23;94036.19;;;4.32;75.48
29247;BME280;16272;48.188;9.964;2024-02-23T04:17:48;94040.78;;;4.30;76.38
29247;BME280;16272;48.188;9.964;2024-02-23T04:20:13;94039.03;;;4.38;75.66
29247;BME280;16272;48.188;9.964;2024-02-23T04:22:39;94038.13;;;4.21;76.07
29247;BME280;16272;48.188;9.964;2024-02-23T04:25:04;94028.53;;;4.12;76.20
29247;BME280;16272;48.188;9.964;2024-02-23T04:27:30;94024.03;;;4.31;76.60
29247;BME280;16272;48.188;9.964;2024-02-23T04:29:55;94025.59;;;4.15;77.42
29247;BME280;16272;48.188;9.964;2024-02-23T04:32:20;94030.28;;;4.30;76.60
29247;BME280;16272;48.188;9.964;2024-02-23T04:34:46;94030.25;;;4.21;77.21
29247;BME280;16272;48.188;9.964;2024-02-23T04:37:11;94034.75;;;4.11;77.99
29247;BME280;16272;48.188;9.964;2024-02-23T04:39:36;94020.03;;;4.18;78.17
29247;BME280;16272;48.188;9.964;2024-02-23T04:42:03;94022.66;;;4.18;78.07
29247;BME280;16272;48.188;9.964;2024-02-23T04:44:29;94021.06;;;4.26;78.23
29247;BME280;16272;48.188;9.964;2024-02-23T04:46:54;94017.41;;;4.18;78.71
29247;BME280;16272;48.188;9.964;2024-02-23T04:49:20;94015.00;;;3.99;80.65
29247;BME280;16272;48.188;9.964;2024-02-23T04:51:45;94012.94;;;4.11;80.80
29247;BME280;16272;48.188;9.964;2024-02-23T04:54:10;94023.16;;;4.22;80.26
29247;BME280;16272;48.188;9.964;2024-02-23T04:56:35;94019.09;;;4.01;80.95
29247;BME280;16272;48.188;9.964;2024-02-23T04:59:01;94015.63;;;3.93;81.35
29247;BME280;16272;48.188;9.964;2024-02-23T05:01:26;94015.81;;;3.99;81.25
29247;BME280;16272;48.188;9.964;2024-02-23T05:03:51;94017.47;;;4.00;81.31
29247;BME280;16272;48.188;9.964;2024-02-23T05:06:17;94018.91;;;3.95;81.80
29247;BME280;16272;48.188;9.964;2024-02-23T05:08:43;94028.66;;;4.02;80.81
29247;BME280;16272;48.188;9.964;2024-02-23T05:11:09;94023.53;;;4.01;81.69
29247;BME280;16272;48.188;9.964;2024-02-23T05:13:34;94020.22;;;3.91;81.46
29247;BME280;16272;48.188;9.964;2024-02-23T05:16:00;94012.34;;;3.91;81.78
29247;BME280;16272;48.188;9.964;2024-02-23T05:18:25;94016.22;;;3.86;82.41
29247;BME280;16272;48.188;9.964;2024-02-23T05:20:51;94029.59;;;3.75;82.69
29247;BME280;16272;48.188;9.964;2024-02-23T05:23:16;94038.28;;;3.67;83.26
29247;BME280;16272;48.188;9.964;2024-02-23T05:25:42;94043.25;;;3.53;84.00
29247;BME280;16272;48.188;9.964;2024-02-23T05:28:07;94055.59;;;3.60;83.96
29247;BME280;16272;48.188;9.964;2024-02-23T05:30:33;94061.00;;;3.59;82.62
29247;BME280;16272;48.188;9.964;2024-02-23T05:32:58;94067.31;;;3.66;82.26
29247;BME280;16272;48.188;9.964;2024-02-23T05:35:24;94069.56;;;3.61;81.66
29247;BME280;16272;48.188;9.964;2024-02-23T05:37:50;94068.19;;;3.57;82.08
29247;BME280;16272;48.188;9.964;2024-02-23T05:40:15;94066.94;;;3.61;82.32
29247;BME280;16272;48.188;9.964;2024-02-23T05:42:41;94044.84;;;3.72;81.68
29247;BME280;16272;48.188;9.964;2024-02-23T05:45:07;94053.81;;;3.61;82.09
29247;BME280;16272;48.188;9.964;2024-02-23T05:47:39;94055.97;;;3.47;82.27
29247;BME280;16272;48.188;9.964;2024-02-23T05:50:05;94051.03;;;3.62;81.81
29247;BME280;16272;48.188;9.964;2024-02-23T05:52:31;94048.00;;;3.75;80.87
29247;BME280;16272;48.188;9.964;2024-02-23T05:54:57;94051.19;;;3.61;80.65
29247;BME280;16272;48.188;9.964;2024-02-23T05:57:25;94062.88;;;3.66;80.50
29247;BME280;16272;48.188;9.964;2024-02-23T05:59:50;94068.94;;;3.67;80.82
29247;BME280;16272;48.188;9.964;2024-02-23T06:02:16;94069.72;;;3.59;81.16
29247;BME280;16272;48.188;9.964;2024-02-23T06:04:41;94070.69;;;3.58;81.02
29247;BME280;16272;48.188;9.964;2024-02-23T06:07:07;94074.56;;;3.54;80.93
29247;BME280;16272;48.188;9.964;2024-02-23T06:09:32;94081.47;;;3.55;81.32
29247;BME280;16272;48.188;9.964;2024-02-23T06:11:57;94074.06;;;3.50;81.57
29247;BME280;16272;48.188;9.964;2024-02-23T06:14:23;94082.91;;;3.67;80.25
29247;BME280;16272;48.188;9.964;2024-02-23T06:16:48;94084.63;;;3.59;80.82
29247;BME280;16272;48.188;9.964;2024-02-23T06:19:14;94090.88;;;3.58;80.63
29247;BME280;16272;48.188;9.964;2024-02-23T06:21:40;94078.03;;;3.73;80.70
29247;BME280;16272;48.188;9.964;2024-02-23T06:24:05;94078.84;;;3.55;81.47
29247;BME280;16272;48.188;9.964;2024-02-23T06:26:30;94072.03;;;3.62;80.14
29247;BME280;16272;48.188;9.964;2024-02-23T06:28:56;94063.97;;;3.64;78.79
29247;BME280;16272;48.188;9.964;2024-02-23T06:31:21;94065.50;;;3.66;79.40
29247;BME280;16272;48.188;9.964;2024-02-23T06:33:46;94066.31;;;3.67;78.90
29247;BME280;16272;48.188;9.964;2024-02-23T06:36:14;94066.66;;;3.72;79.42
29247;BME280;16272;48.188;9.964;2024-02-23T06:38:39;94076.75;;;3.59;79.90
29247;BME280;16272;48.188;9.964;2024-02-23T06:41:05;94070.44;;;3.70;79.26
29247;BME280;16272;48.188;9.964;2024-02-23T06:43:30;94072.97;;;3.79;79.34
29247;BME280;16272;48.188;9.964;2024-02-23T06:45:56;94083.94;;;3.75;78.83
29247;BME280;16272;48.188;9.964;2024-02-23T06:48:23;94095.81;;;3.61;80.36
29247;BME280;16272;48.188;9.964;2024-02-23T06:50:49;94095.81;;;3.61;81.32
29247;BME280;16272;48.188;9.964;2024-02-23T06:53:14;94112.22;;;3.63;80.81
29247;BME280;16272;48.188;9.964;2024-02-23T06:55:40;94115.16;;;3.60;81.43
29247;BME280;16272;48.188;9.964;2024-02-23T06:58:05;94125.94;;;3.57;82.30
29247;BME280;16272;48.188;9.964;2024-02-23T07:00:32;94118.22;;;3.55;81.82
29247;BME280;16272;48.188;9.964;2024-02-23T07:02:57;94115.44;;;3.57;82.08
29247;BME280;16272;48.188;9.964;2024-02-23T07:05:28;94114.50;;;3.58;82.58
29247;BME280;16272;48.188;9.964;2024-02-23T07:07:54;94105.47;;;3.60;81.91
29247;BME280;16272;48.188;9.964;2024-02-23T07:10:19;94096.94;;;3.40;82.74
29247;BME280;16272;48.188;9.964;2024-02-23T07:12:45;94097.66;;;3.50;83.90
29247;BME280;16272;48.188;9.964;2024-02-23T07:15:10;94101.06;;;3.61;84.00
29247;BME280;16272;48.188;9.964;2024-02-23T07:17:36;94110.28;;;3.65;82.24
29247;BME280;16272;48.188;9.964;2024-02-23T07:20:01;94107.06;;;3.71;81.73
29247;BME280;16272;48.188;9.964;2024-02-23T07:22:33;94102.09;;;3.68;83.02
29247;BME280;16272;48.188;9.964;2024-02-23T07:24:59;94109.97;;;3.68;83.62
29247;BME280;16272;48.188;9.964;2024-02-23T07:27:26;94104.22;;;3.46;83.54
29247;BME280;16272;48.188;9.964;2024-02-23T07:29:51;94107.88;;;3.54;83.77
29247;BME280;16272;48.188;9.964;2024-02-23T07:32:17;94105.53;;;3.50;83.59
29247;BME280;16272;48.188;9.964;2024-02-23T07:34:42;94113.50;;;3.59;82.51
29247;BME280;16272;48.188;9.964;2024-02-23T07:37:07;94105.09;;;3.73;82.30
29247;BME280;16272;48.188;9.964;2024-02-23T07:39:33;94104.34;;;3.63;82.56
29247;BME280;16272;48.188;9.964;2024-02-23T07:41:58;94099.59;;;3.84;80.97
29247;BME280;16272;48.188;9.964;2024-02-23T07:44:23;94074.94;;;3.77;81.12
29247;BME280;16272;48.188;9.964;2024-02-23T07:46:50;94078.75;;;3.83;80.82
29247;BME280;16272;48.188;9.964;2024-02-23T07:49:17;94089.34;;;3.73;81.63
29247;BME280;16272;48.188;9.964;2024-02-23T07:51:42;94080.41;;;3.84;80.72
29247;BME280;16272;48.188;9.964;2024-02-23T07:54:07;94099.72;;;4.01;81.54
29247;BME280;16272;48.188;9.964;2024-02-23T07:56:33;94113.09;;;3.90;80.72
29247;BME280;16272;48.188;9.964;2024-02-23T07:58:58;94114.06;;;3.89;80.50
29247;BME280;16272;48.188;9.964;2024-02-23T08:01:23;94106.00;;;4.08;80.19
29247;BME280;16272;48.188;9.964;2024-02-23T08:03:48;94108.66;;;3.90;79.88
29247;BME280;16272;48.188;9.964;2024-02-23T08:06:14;94121.25;;;4.04;79.81
29247;BME280;16272;48.188;9.964;2024-02-23T08:08:39;94111.09;;;4.10;79.64
29247;BME280;16272;48.188;9.964;2024-02-23T08:11:05;94104.81;;;4.02;78.59
29247;BME280;16272;48.188;9.964;2024-02-23T08:13:30;94102.78;;;4.14;78.74
29247;BME280;16272;48.188;9.964;2024-02-23T08:15:57;94120.66;;;4.11;78.25
29247;BME280;16272;48.188;9.964;2024-02-23T08:18:22;94124.38;;;4.08;76.95
29247;BME280;16272;48.188;9.964;2024-02-23T08:20:48;94125.31;;;3.99;77.29
29247;BME280;16272;48.188;9.964;2024-02-23T08:23:13;94123.19;;;4.20;77.49
29247;BME280;16272;48.188;9.964;2024-02-23T08:25:39;94120.13;;;4.07;76.28
29247;BME280;16272;48.188;9.964;2024-02-23T08:28:04;94119.47;;;4.05;76.34
29247;BME280;16272;48.188;9.964;2024-02-23T08:30:29;94117.56;;;4.15;76.47
29247;BME280;16272;48.188;9.964;2024-02-23T08:32:55;94128.69;;;4.09;76.71
29247;BME280;16272;48.188;9.964;2024-02-23T08:35:20;94115.28;;;4.20;75.71
29247;BME280;16272;48.188;9.964;2024-02-23T08:37:45;94123.19;;;4.20;74.79
29247;BME280;16272;48.188;9.964;2024-02-23T08:40:11;94120.69;;;4.19;76.08
29247;BME280;16272;48.188;9.964;2024-02-23T08:42:37;94111.38;;;4.24;74.12
29247;BME280;16272;48.188;9.964;2024-02-23T08:45:02;94116.00;;;4.31;73.76
29247;BME280;16272;48.188;9.964;2024-02-23T08:47:28;94104.22;;;4.35;72.64
29247;BME280;16272;48.188;9.964;2024-02-23T08:49:57;94101.25;;;4.30;73.86
29247;BME280;16272;48.188;9.964;2024-02-23T08:52:22;94108.84;;;4.41;72.93
29247;BME280;16272;48.188;9.964;2024-02-23T08:54:48;94124.56;;;4.33;74.34
29247;BME280;16272;48.188;9.964;2024-02-23T08:57:13;94129.88;;;4.41;72.19
29247;BME280;16272;48.188;9.964;2024-02-23T08:59:42;94127.97;;;4.51;71.48
29247;BME280;16272;48.188;9.964;2024-02-23T09:02:07;94134.59;;;4.37;69.71
29247;BME280;16272;48.188;9.964;2024-02-23T09:04:34;94132.59;;;4.57;71.55
29247;BME280;16272;48.188;9.964;2024-02-23T09:07:00;94133.66;;;4.73;68.82
29247;BME280;16272;48.188;9.964;2024-02-23T09:09:25;94132.03;;;4.46;70.98
29247;BME280;16272;48.188;9.964;2024-02-23T09:11:51;94129.25;;;4.47;70.76
29247;BME280;16272;48.188;9.964;2024-02-23T09:14:16;94121.00;;;4.42;70.14
29247;BME280;16272;48.188;9.964;2024-02-23T09:16:41;94129.34;;;4.64;69.83
29247;BME280;16272;48.188;9.964;2024-02-23T09:19:07;94132.94;;;4.54;69.33
29247;BME280;16272;48.188;9.964;2024-02-23T09:21:32;94146.38;;;4.51;73.21
29247;BME280;16272;48.188;9.964;2024-02-23T09:23:58;94148.13;;;4.42;70.34
29247;BME280;16272;48.188;9.964;2024-02-23T09:26:24;94141.38;;;4.40;71.47
29247;BME280;16272;48.188;9.964;2024-02-23T09:28:49;94136.53;;;4.53;69.47
29247;BME280;16272;48.188;9.964;2024-02-23T09:31:15;94128.31;;;4.56;68.05
29247;BME280;16272;48.188;9.964;2024-02-23T09:33:40;94139.50;;;4.58;69.18
29247;BME280;16272;48.188;9.964;2024-02-23T09:36:06;94147.50;;;4.49;71.42
29247;BME280;16272;48.188;9.964;2024-02-23T09:38:31;94147.00;;;4.45;70.35
29247;BME280;16272;48.188;9.964;2024-02-23T09:40:57;94158.72;;;4.59;70.76
29247;BME280;16272;48.188;9.964;2024-02-23T09:43:24;94155.94;;;4.60;70.56
29247;BME280;16272;48.188;9.964;2024-02-23T09:45:53;94154.63;;;4.56;69.94
29247;BME280;16272;48.188;9.964;2024-02-23T09:48:19;94145.63;;;4.41;69.29
29247;BME280;16272;48.188;9.964;2024-02-23T09:50:47;94147.78;;;4.72;69.25
29247;BME280;16272;48.188;9.964;2024-02-23T09:53:13;94145.63;;;4.67;69.68
29247;BME280;16272;48.188;9.964;2024-02-23T09:55:38;94146.19;;;4.45;71.71
29247;BME280;16272;48.188;9.964;2024-02-23T09:58:04;94144.81;;;4.40;71.15
29247;BME280;16272;48.188;9.964;2024-02-23T10:00:29;94151.28;;;4.46;71.88
29247;BME280;16272;48.188;9.964;2024-02-23T10:02:55;94160.47;;;4.24;70.48
29247;BME280;16272;48.188;9.964;2024-02-23T10:05:23;94157.56;;;4.53;71.26
29247;BME280;16272;48.188;9.964;2024-02-23T10:07:53;94160.19;;;4.53;71.24
29247;BME280;16272;48.188;9.964;2024-02-23T10:10:24;94165.84;;;4.67;71.22
29247;BME280;16272;48.188;9.964;2024-02-23T10:12:51;94172.75;;;4.68;71.86
29247;BME280;16272;48.188;9.964;2024-02-23T10:15:17;94163.97;;;4.59;71.45
29247;BME280;16272;48.188;9.964;2024-02-23T10:17:42;94163.47;;;4.55;72.03
29247;BME280;16272;48.188;9.964;2024-02-23T10:20:07;94162.91;;;4.44;73.11
29247;BME280;16272;48.188;9.964;2024-02-23T10:22:33;94150.78;;;4.24;72.00
29247;BME280;16272;48.188;9.964;2024-02-23T10:24:58;94158.13;;;4.65;73.13
29247;BME280;16272;48.188;9.964;2024-02-23T10:27:24;94158.25;;;4.64;73.81
29247;BME280;16272;48.188;9.964;2024-02-23T10:29:50;94155.84;;;4.44;73.46
29247;BME280;16272;48.188;9.964;2024-02-23T10:32:16;94159.81;;;4.48;73.51
29247;BME280;16272;48.188;9.964;2024-02-23T10:34:43;94165.53;;;4.70;71.89
29247;BME280;16272;48.188;9.964;2024-02-23T10:37:09;94162.44;;;4.74;72.66
29247;BME280;16272;48.188;9.964;2024-02-23T10:39:36;94160.28;;;4.70;73.57
29247;BME280;16272;48.188;9.964;2024-02-23T10:42:03;94162.13;;;4.77;73.12
29247;BME280;16272;48.188;9.964;2024-02-23T10:44:29;94156.91;;;4.51;73.89
29247;BME280;16272;48.188;9.964;2024-02-23T10:46:55;94154.41;;;4.50;74.92
29247;BME280;16272;48.188;9.964;2024-02-23T10:49:23;94151.41;;;4.71;75.11
29247;BME280;16272;48.188;9.964;2024-02-23T10:51:51;94153.63;;;4.57;74.72
29247;BME280;16272;48.188;9.964;2024-02-23T10:54:18;94158.97;;;4.66;73.84
29247;BME280;16272;48.188;9.964;2024-02-23T10:56:52;94156.56;;;4.81;73.84
29247;BME280;16272;48.188;9.964;2024-02-23T10:59:18;94159.34;;;4.79;73.07
29247;BME280;16272;48.188;9.964;2024-02-23T11:01:48;94159.34;;;4.79;72.99
29247;BME280;16272;48.188;9.964;2024-02-23T11:04:16;94145.59;;;4.93;73.18
29247;BME280;16272;48.188;9.964;2024-02-23T11:06:42;94146.25;;;4.87;70.32
29247;BME280;16272;48.188;9.964;2024-02-23T11:09:08;94155.31;;;4.67;72.23
29247;BME280;16272;48.188;9.964;2024-02-23T11:11:34;94160.88;;;4.90;71.70
29247;BME280;16272;48.188;9.964;2024-02-23T11:14:02;94162.09;;;5.04;69.70
29247;BME280;16272;48.188;9.964;2024-02-23T11:16:28;94171.22;;;5.26;70.27
29247;BME280;16272;48.188;9.964;2024-02-23T11:19:06;94165.38;;;5.06;70.26
29247;BME280;16272;48.188;9.964;2024-02-23T11:21:35;94160.50;;;5.19;69.26
29247;BME280;16272;48.188;9.964;2024-02-23T11:24:06;94164.16;;;5.26;70.05
29247;BME280;16272;48.188;9.964;2024-02-23T11:26:32;94159.94;;;4.99;71.31
29247;BME280;16272;48.188;9.964;2024-02-23T11:29:09;94164.75;;;5.12;71.43
29247;BME280;16272;48.188;9.964;2024-02-23T11:31:35;94162.66;;;5.24;70.66
29247;BME280;16272;48.188;9.964;2024-02-23T11:34:00;94166.84;;;5.43;71.93
29247;BME280;16272;48.188;9.964;2024-02-23T11:36:32;94154.91;;;5.22;72.22
29247;BME280;16272;48.188;9.964;2024-02-23T11:38:59;94152.69;;;5.44;71.08
29247;BME280;16272;48.188;9.964;2024-02-23T11:41:27;94141.56;;;5.15;69.48
29247;BME280;16272;48.188;9.964;2024-02-23T11:43:53;94147.72;;;5.32;71.87
29247;BME280;16272;48.188;9.964;2024-02-23T11:46:20;94152.72;;;5.60;71.37
29247;BME280;16272;48.188;9.964;2024-02-23T11:48:46;94147.69;;;5.24;70.18
29247;BME280;16272;48.188;9.964;2024-02-23T11:51:15;94154.56;;;5.68;72.14
29247;BME280;16272;48.188;9.964;2024-02-23T11:53:40;94140.56;;;5.76;71.40
29247;BME280;16272;48.188;9.964;2024-02-23T11:56:06;94125.13;;;6.05;70.90
29247;BME280;16272;48.188;9.964;2024-02-23T11:58:32;94134.44;;;5.67;72.14
29247;BME280;16272;48.188;9.964;2024-02-23T12:00:59;94141.84;;;5.63;72.96
29247;BME280;16272;48.188;9.964;2024-02-23T12:03:26;94128.38;;;5.75;71.97
29247;BME280;16272;48.188;9.964;2024-02-23T12:05:51;94125.25;;;5.79;73.42
29247;BME280;16272;48.188;9.964;2024-02-23T12:08:17;94124.50;;;6.03;72.34
29247;BME280;16272;48.188;9.964;2024-02-23T12:10:43;94127.78;;;5.97;71.66
29247;BME280;16272;48.188;9.964;2024-02-23T12:13:09;94123.47;;;6.04;73.07
29247;BME280;16272;48.188;9.964;2024-02-23T12:15:34;94129.41;;;6.23;71.64
29247;BME280;16272;48.188;9.964;2024-02-23T12:17:59;94127.63;;;6.07;71.96
29247;BME280;16272;48.188;9.964;2024-02-23T12:20:25;94118.53;;;6.01;72.33
29247;BME280;16272;48.188;9.964;2024-02-23T12:22:54;94119.84;;;6.22;72.26
29247;BME280;16272;48.188;9.964;2024-02-23T12:25:19;94123.78;;;6.18;73.12
29247;BME280;16272;48.188;9.964;2024-02-23T12:27:45;94115.56;;;6.13;73.40
29247;BME280;16272;48.188;9.964;2024-02-23T12:30:14;94123.16;;;6.16;72.60
29247;BME280;16272;48.188;9.964;2024-02-23T12:32:40;94113.56;;;5.90;74.53
29247;BME280;16272;48.188;9.964;2024-02-23T12:35:05;94112.25;;;5.94;74.50
29247;BME280;16272;48.188;9.964;2024-02-23T12:37:34;94105.00;;;5.88;73.87
29247;BME280;16272;48.188;9.964;2024-02-23T12:40:00;94105.50;;;5.83;72.46
29247;BME280;16272;48.188;9.964;2024-02-23T12:42:25;94107.66;;;6.04;75.59
29247;BME280;16272;48.188;9.964;2024-02-23T12:44:51;94112.25;;;5.61;74.95
29247;BME280;16272;48.188;9.964;2024-02-23T12:47:16;94114.84;;;5.45;74.15
29247;BME280;16272;48.188;9.964;2024-02-23T12:49:41;94106.97;;;5.69;75.04
29247;BME280;16272;48.188;9.964;2024-02-23T12:52:07;94103.53;;;5.85;74.11
29247;BME280;16272;48.188;9.964;2024-02-23T12:54:32;94103.22;;;5.97;73.32
29247;BME280;16272;48.188;9.964;2024-02-23T12:56:57;94107.97;;;5.85;73.77
29247;BME280;16272;48.188;9.964;2024-02-23T12:59:23;94104.50;;;5.60;74.12
29247;BME280;16272;48.188;9.964;2024-02-23T13:01:48;94108.94;;;5.59;74.04